首页
METAR-TAF:

METAR-TAF

机场 :

阿尔图纳, 宾夕法尼亚州, 美国

纬度: 40-18-00N, 经度: 078-19-01W, 海拔: 458米

当前天气观测

该预报发布于26分钟前的16:53 UTC
风速6节,风向南转西南
温度 22°C
湿度 83%
气压 1017 hPa
能見度: 16.1公里
散云层高于3600英尺
多云层高于9500英尺
阴天层高于12000英尺

METAR: KAOO 171653Z AUTO 20006KT 10SM SCT036 BKN095 OVC120 22/19 A3004 RMK AO2 RAB29E50 SLP165 P0000 T02170189

时间: 13:19 (17:19 UTC)

预报

该预报发布于1小时和40分钟前的15:39 UTC
预报有效从17日的 16点(UTC)到 18日的 12点(UTC)
风速8节,风向西南
能見度: 10公里
散云层高于2400英尺
阴天层高于4500英尺
小阵雨
从 17日的 1700点(UTC)
风速3节,风向多变
能見度: 10公里
多云层高于3500英尺
多云层高于4500英尺
附近有阵雨
从 18日的 0200点(UTC)
风速5节,风向西南
能見度: 8.0公里
阴天层高于2500英尺
小阵雨, 轻雾

TAF: KAOO 171539Z 1716/1812 22008KT P6SM -SHRA SCT024 OVC045 FM171700 VRB03KT P6SM VCSH BKN035 BKN045 FM180200 23005KT 5SM -SHRA BR OVC025

超过4000个机场的气象观测和天气预报(METAR&TAF报告)。

可查询的气象台以黄色和红色小点在地图上表示。

将鼠标移到小点上方,可查看气象台名称。

然后点击查看天气观测和预报。

如需切换地图:点击带黑十字的绿色按钮放大地图;点击带横线的绿色按钮缩小地图;或者点击绿色箭头查看邻近地区的地图。


METAR-TAF: